Pagrindinis puslapis
METAR-TAF:

METAR-TAF

Oro uostai :

San Paulas, San Paulas, Brazilija

platuma: 23-31S, ilguma: 046-38W, Aukštis: 722 m

Dabartinis oras

Ataskaita buvo paskelbta 1 valandą ir 13 minutes, ne 21:00 UTC
Vėjas 2 kt iš Vakarų/Šiaurės Vakarų
Temperatūra 22°C
Drėgmė 35%
Slėgis 1019 hPa
Matomumas 10 km arba daugiau
nėra debesų žemiau 1500 m ir nėra kamuolinių lietaus debesų

METAR: SBMT 302100Z 29002KT CAVOK 22/06 Q1019

Laikas: 19:13 (22:13 UTC)


TAF: trūkstamas

Orai ataskaitas ir orų prognozės (METAR, TAF).

turimą stotys yra geltonos ir raudonos taškus žemėlapyje.

Perkelti pele per norėdami pamatyti stoties vardą.

Tada spustelėkite, norėdami matyti oro stebėjimo ir prognozės.

Norėdami pakeisti žemėlapį: spustelėkite ant žalios mygtukų su juodo kryžiaus žemyn,; žalią mygtuką su brūkšneliu, jei norite nutolinti; arba žalių rodyklių gretimoms žemėlapius.


METAR-TAF: